sensor_id;sensor_type;location;lat;lon;timestamp;P1;durP1;ratioP1;P2;durP2;ratioP2
32228;SDS011;18717;48.034;11.186;2024-01-27T00:01:37;8.30;;;7.50;;
32228;SDS011;18717;48.034;11.186;2024-01-27T00:04:05;7.82;;;7.22;;
32228;SDS011;18717;48.034;11.186;2024-01-27T00:06:32;9.43;;;6.72;;
32228;SDS011;18717;48.034;11.186;2024-01-27T00:09:00;11.07;;;7.03;;
32228;SDS011;18717;48.034;11.186;2024-01-27T00:11:29;7.88;;;7.22;;
32228;SDS011;18717;48.034;11.186;2024-01-27T00:13:57;7.78;;;7.18;;
32228;SDS011;18717;48.034;11.186;2024-01-27T00:16:26;7.13;;;6.63;;
32228;SDS011;18717;48.034;11.186;2024-01-27T00:18:53;7.70;;;7.10;;
32228;SDS011;18717;48.034;11.186;2024-01-27T00:21:21;7.97;;;7.40;;
32228;SDS011;18717;48.034;11.186;2024-01-27T00:23:49;8.20;;;7.57;;
32228;SDS011;18717;48.034;11.186;2024-01-27T00:26:17;7.07;;;6.78;;
32228;SDS011;18717;48.034;11.186;2024-01-27T00:28:46;9.57;;;6.88;;
32228;SDS011;18717;48.034;11.186;2024-01-27T00:31:13;10.48;;;7.50;;
32228;SDS011;18717;48.034;11.186;2024-01-27T00:33:41;8.70;;;7.45;;
32228;SDS011;18717;48.034;11.186;2024-01-27T00:36:09;9.85;;;7.10;;
32228;SDS011;18717;48.034;11.186;2024-01-27T00:38:37;7.60;;;7.20;;
32228;SDS011;18717;48.034;11.186;2024-01-27T00:41:05;7.90;;;7.10;;
32228;SDS011;18717;48.034;11.186;2024-01-27T00:43:33;7.72;;;7.32;;
32228;SDS011;18717;48.034;11.186;2024-01-27T00:46:02;8.80;;;7.53;;
32228;SDS011;18717;48.034;11.186;2024-01-27T00:48:29;13.77;;;7.15;;
32228;SDS011;18717;48.034;11.186;2024-01-27T00:50:57;8.65;;;7.22;;
32228;SDS011;18717;48.034;11.186;2024-01-27T00:53:25;8.10;;;7.45;;
32228;SDS011;18717;48.034;11.186;2024-01-27T00:55:53;9.27;;;6.93;;
32228;SDS011;18717;48.034;11.186;2024-01-27T00:58:20;7.72;;;7.22;;
32228;SDS011;18717;48.034;11.186;2024-01-27T01:00:48;8.23;;;7.68;;
32228;SDS011;18717;48.034;11.186;2024-01-27T01:03:17;8.02;;;7.40;;
32228;SDS011;18717;48.034;11.186;2024-01-27T01:05:45;7.60;;;6.97;;
32228;SDS011;18717;48.034;11.186;2024-01-27T01:08:13;8.52;;;7.57;;
32228;SDS011;18717;48.034;11.186;2024-01-27T01:10:40;7.65;;;7.13;;
32228;SDS011;18717;48.034;11.186;2024-01-27T01:13:08;7.78;;;7.28;;
32228;SDS011;18717;48.034;11.186;2024-01-27T01:15:36;7.32;;;6.55;;
32228;SDS011;18717;48.034;11.186;2024-01-27T01:18:04;7.97;;;7.22;;
32228;SDS011;18717;48.034;11.186;2024-01-27T01:20:33;9.13;;;7.07;;
32228;SDS011;18717;48.034;11.186;2024-01-27T01:23:01;8.15;;;7.45;;
32228;SDS011;18717;48.034;11.186;2024-01-27T01:25:29;7.93;;;7.07;;
32228;SDS011;18717;48.034;11.186;2024-01-27T01:27:57;7.45;;;7.03;;
32228;SDS011;18717;48.034;11.186;2024-01-27T01:30:24;7.90;;;6.82;;
32228;SDS011;18717;48.034;11.186;2024-01-27T01:32:52;8.07;;;7.28;;
32228;SDS011;18717;48.034;11.186;2024-01-27T01:35:20;7.63;;;6.97;;
32228;SDS011;18717;48.034;11.186;2024-01-27T01:37:49;7.72;;;7.03;;
32228;SDS011;18717;48.034;11.186;2024-01-27T01:40:17;7.07;;;6.68;;
32228;SDS011;18717;48.034;11.186;2024-01-27T01:42:49;7.05;;;6.65;;
32228;SDS011;18717;48.034;11.186;2024-01-27T01:45:18;6.97;;;6.57;;
32228;SDS011;18717;48.034;11.186;2024-01-27T01:47:46;9.60;;;7.55;;
32228;SDS011;18717;48.034;11.186;2024-01-27T01:50:14;8.32;;;7.50;;
32228;SDS011;18717;48.034;11.186;2024-01-27T01:52:42;7.57;;;6.97;;
32228;SDS011;18717;48.034;11.186;2024-01-27T01:55:11;7.13;;;6.63;;
32228;SDS011;18717;48.034;11.186;2024-01-27T01:57:39;10.50;;;7.13;;
32228;SDS011;18717;48.034;11.186;2024-01-27T02:00:07;7.80;;;7.05;;
32228;SDS011;18717;48.034;11.186;2024-01-27T02:02:35;7.40;;;6.75;;
32228;SDS011;18717;48.034;11.186;2024-01-27T02:05:03;11.32;;;7.13;;
32228;SDS011;18717;48.034;11.186;2024-01-27T02:07:31;7.45;;;6.90;;
32228;SDS011;18717;48.034;11.186;2024-01-27T02:10:00;7.85;;;7.13;;
32228;SDS011;18717;48.034;11.186;2024-01-27T02:12:29;8.70;;;7.63;;
32228;SDS011;18717;48.034;11.186;2024-01-27T02:14:56;7.47;;;6.97;;
32228;SDS011;18717;48.034;11.186;2024-01-27T02:17:24;7.15;;;6.65;;
32228;SDS011;18717;48.034;11.186;2024-01-27T02:19:52;12.25;;;7.32;;
32228;SDS011;18717;48.034;11.186;2024-01-27T02:22:20;7.78;;;7.22;;
32228;SDS011;18717;48.034;11.186;2024-01-27T02:24:49;7.30;;;6.80;;
32228;SDS011;18717;48.034;11.186;2024-01-27T02:27:16;7.50;;;7.13;;
32228;SDS011;18717;48.034;11.186;2024-01-27T02:29:44;12.73;;;6.97;;
32228;SDS011;18717;48.034;11.186;2024-01-27T02:32:12;7.35;;;6.70;;
32228;SDS011;18717;48.034;11.186;2024-01-27T02:34:40;7.20;;;6.75;;
32228;SDS011;18717;48.034;11.186;2024-01-27T02:37:07;8.52;;;7.78;;
32228;SDS011;18717;48.034;11.186;2024-01-27T02:39:36;9.77;;;6.95;;
32228;SDS011;18717;48.034;11.186;2024-01-27T02:42:05;8.45;;;7.10;;
32228;SDS011;18717;48.034;11.186;2024-01-27T02:44:33;8.18;;;7.50;;
32228;SDS011;18717;48.034;11.186;2024-01-27T02:47:00;8.60;;;7.10;;
32228;SDS011;18717;48.034;11.186;2024-01-27T02:49:28;7.97;;;7.38;;
32228;SDS011;18717;48.034;11.186;2024-01-27T02:51:56;7.95;;;7.13;;
32228;SDS011;18717;48.034;11.186;2024-01-27T02:54:24;10.13;;;7.35;;
32228;SDS011;18717;48.034;11.186;2024-01-27T02:56:53;7.82;;;7.28;;
32228;SDS011;18717;48.034;11.186;2024-01-27T02:59:22;10.55;;;7.72;;
32228;SDS011;18717;48.034;11.186;2024-01-27T03:01:50;11.73;;;8.38;;
32228;SDS011;18717;48.034;11.186;2024-01-27T03:04:18;7.72;;;7.13;;
32228;SDS011;18717;48.034;11.186;2024-01-27T03:06:46;8.00;;;7.32;;
32228;SDS011;18717;48.034;11.186;2024-01-27T03:09:14;13.88;;;7.82;;
32228;SDS011;18717;48.034;11.186;2024-01-27T03:11:41;8.27;;;7.13;;
32228;SDS011;18717;48.034;11.186;2024-01-27T03:14:09;7.85;;;7.13;;
32228;SDS011;18717;48.034;11.186;2024-01-27T03:16:39;11.57;;;7.07;;
32228;SDS011;18717;48.034;11.186;2024-01-27T03:19:06;8.40;;;7.00;;
32228;SDS011;18717;48.034;11.186;2024-01-27T03:21:34;7.70;;;7.13;;
32228;SDS011;18717;48.034;11.186;2024-01-27T03:24:02;7.75;;;7.35;;
32228;SDS011;18717;48.034;11.186;2024-01-27T03:26:30;7.55;;;6.90;;
32228;SDS011;18717;48.034;11.186;2024-01-27T03:28:58;7.15;;;6.68;;
32228;SDS011;18717;48.034;11.186;2024-01-27T03:31:29;8.23;;;7.30;;
32228;SDS011;18717;48.034;11.186;2024-01-27T03:33:59;5.13;;;4.70;;
32228;SDS011;18717;48.034;11.186;2024-01-27T03:36:26;7.30;;;6.78;;
32228;SDS011;18717;48.034;11.186;2024-01-27T03:38:56;8.52;;;6.65;;
32228;SDS011;18717;48.034;11.186;2024-01-27T03:41:24;7.20;;;6.70;;
32228;SDS011;18717;48.034;11.186;2024-01-27T03:43:52;8.38;;;6.78;;
32228;SDS011;18717;48.034;11.186;2024-01-27T03:46:20;7.35;;;6.93;;
32228;SDS011;18717;48.034;11.186;2024-01-27T03:48:47;7.45;;;6.47;;
32228;SDS011;18717;48.034;11.186;2024-01-27T03:51:16;7.45;;;6.82;;
32228;SDS011;18717;48.034;11.186;2024-01-27T03:53:44;7.18;;;6.60;;
32228;SDS011;18717;48.034;11.186;2024-01-27T03:56:12;9.30;;;6.57;;
32228;SDS011;18717;48.034;11.186;2024-01-27T03:58:40;9.80;;;7.32;;
32228;SDS011;18717;48.034;11.186;2024-01-27T04:01:08;10.73;;;7.68;;
32228;SDS011;18717;48.034;11.186;2024-01-27T04:03:36;7.82;;;7.03;;
32228;SDS011;18717;48.034;11.186;2024-01-27T04:06:04;7.57;;;6.65;;
32228;SDS011;18717;48.034;11.186;2024-01-27T04:08:33;7.63;;;6.97;;
32228;SDS011;18717;48.034;11.186;2024-01-27T04:11:01;7.82;;;6.85;;
32228;SDS011;18717;48.034;11.186;2024-01-27T04:13:29;8.18;;;7.20;;
32228;SDS011;18717;48.034;11.186;2024-01-27T04:15:56;7.97;;;7.38;;
32228;SDS011;18717;48.034;11.186;2024-01-27T04:18:27;7.75;;;7.20;;
32228;SDS011;18717;48.034;11.186;2024-01-27T04:20:55;7.60;;;7.00;;
32228;SDS011;18717;48.034;11.186;2024-01-27T04:23:23;7.70;;;6.97;;
32228;SDS011;18717;48.034;11.186;2024-01-27T04:25:52;6.68;;;6.25;;
32228;SDS011;18717;48.034;11.186;2024-01-27T04:28:20;7.78;;;6.88;;
32228;SDS011;18717;48.034;11.186;2024-01-27T04:30:48;7.47;;;7.03;;
32228;SDS011;18717;48.034;11.186;2024-01-27T04:33:15;7.70;;;6.28;;
32228;SDS011;18717;48.034;11.186;2024-01-27T04:35:44;7.43;;;6.82;;
32228;SDS011;18717;48.034;11.186;2024-01-27T04:38:11;7.95;;;7.32;;
32228;SDS011;18717;48.034;11.186;2024-01-27T04:40:39;9.10;;;7.75;;
32228;SDS011;18717;48.034;11.186;2024-01-27T04:43:08;9.32;;;7.82;;
32228;SDS011;18717;48.034;11.186;2024-01-27T04:45:36;7.57;;;7.00;;
32228;SDS011;18717;48.034;11.186;2024-01-27T04:48:04;9.18;;;8.23;;
32228;SDS011;18717;48.034;11.186;2024-01-27T04:50:32;8.93;;;7.30;;
32228;SDS011;18717;48.034;11.186;2024-01-27T04:53:00;8.65;;;7.97;;
32228;SDS011;18717;48.034;11.186;2024-01-27T04:55:28;10.45;;;8.23;;
32228;SDS011;18717;48.034;11.186;2024-01-27T04:57:55;9.57;;;8.55;;
32228;SDS011;18717;48.034;11.186;2024-01-27T05:00:26;9.20;;;8.13;;
32228;SDS011;18717;48.034;11.186;2024-01-27T05:02:54;7.63;;;6.93;;
32228;SDS011;18717;48.034;11.186;2024-01-27T05:05:23;9.65;;;7.25;;
32228;SDS011;18717;48.034;11.186;2024-01-27T05:07:51;9.02;;;8.10;;
32228;SDS011;18717;48.034;11.186;2024-01-27T05:10:19;9.55;;;7.47;;
32228;SDS011;18717;48.034;11.186;2024-01-27T05:12:48;7.55;;;6.95;;
32228;SDS011;18717;48.034;11.186;2024-01-27T05:15:16;8.48;;;7.78;;
32228;SDS011;18717;48.034;11.186;2024-01-27T05:17:45;12.48;;;7.63;;
32228;SDS011;18717;48.034;11.186;2024-01-27T05:20:13;7.88;;;7.20;;
32228;SDS011;18717;48.034;11.186;2024-01-27T05:22:40;7.70;;;7.00;;
32228;SDS011;18717;48.034;11.186;2024-01-27T05:25:08;9.32;;;8.32;;
32228;SDS011;18717;48.034;11.186;2024-01-27T05:27:36;8.18;;;7.00;;
32228;SDS011;18717;48.034;11.186;2024-01-27T05:30:05;8.35;;;6.90;;
32228;SDS011;18717;48.034;11.186;2024-01-27T05:32:33;7.72;;;6.80;;
32228;SDS011;18717;48.034;11.186;2024-01-27T05:35:03;10.25;;;7.30;;
32228;SDS011;18717;48.034;11.186;2024-01-27T05:37:31;8.40;;;7.70;;
32228;SDS011;18717;48.034;11.186;2024-01-27T05:39:59;8.48;;;7.78;;
32228;SDS011;18717;48.034;11.186;2024-01-27T05:42:27;6.78;;;6.30;;
32228;SDS011;18717;48.034;11.186;2024-01-27T05:44:54;7.78;;;7.10;;
32228;SDS011;18717;48.034;11.186;2024-01-27T05:47:22;15.25;;;8.45;;
32228;SDS011;18717;48.034;11.186;2024-01-27T05:49:50;8.10;;;7.30;;
32228;SDS011;18717;48.034;11.186;2024-01-27T05:52:19;11.07;;;7.38;;
32228;SDS011;18717;48.034;11.186;2024-01-27T05:54:51;10.55;;;7.55;;
32228;SDS011;18717;48.034;11.186;2024-01-27T05:57:19;10.93;;;7.47;;
32228;SDS011;18717;48.034;11.186;2024-01-27T05:59:47;11.88;;;7.93;;
32228;SDS011;18717;48.034;11.186;2024-01-27T06:02:14;8.93;;;7.50;;
32228;SDS011;18717;48.034;11.186;2024-01-27T06:04:44;8.15;;;7.25;;
32228;SDS011;18717;48.034;11.186;2024-01-27T06:07:12;8.02;;;7.18;;
32228;SDS011;18717;48.034;11.186;2024-01-27T06:09:41;10.88;;;8.05;;
32228;SDS011;18717;48.034;11.186;2024-01-27T06:12:09;12.52;;;8.38;;
32228;SDS011;18717;48.034;11.186;2024-01-27T06:14:37;15.30;;;9.07;;
32228;SDS011;18717;48.034;11.186;2024-01-27T06:17:04;11.07;;;7.70;;
32228;SDS011;18717;48.034;11.186;2024-01-27T06:19:32;8.27;;;7.50;;
32228;SDS011;18717;48.034;11.186;2024-01-27T06:22:00;9.23;;;7.78;;
32228;SDS011;18717;48.034;11.186;2024-01-27T06:24:31;7.88;;;7.03;;
32228;SDS011;18717;48.034;11.186;2024-01-27T06:27:01;11.02;;;7.30;;
32228;SDS011;18717;48.034;11.186;2024-01-27T06:29:28;11.27;;;8.50;;
32228;SDS011;18717;48.034;11.186;2024-01-27T06:31:56;9.27;;;7.95;;
32228;SDS011;18717;48.034;11.186;2024-01-27T06:34:24;8.30;;;7.50;;
32228;SDS011;18717;48.034;11.186;2024-01-27T06:36:52;8.48;;;7.68;;
32228;SDS011;18717;48.034;11.186;2024-01-27T06:39:20;9.13;;;7.05;;
32228;SDS011;18717;48.034;11.186;2024-01-27T06:41:48;8.05;;;7.25;;
32228;SDS011;18717;48.034;11.186;2024-01-27T06:44:17;8.88;;;8.02;;
32228;SDS011;18717;48.034;11.186;2024-01-27T06:46:44;14.02;;;9.63;;
32228;SDS011;18717;48.034;11.186;2024-01-27T06:49:16;6.68;;;6.07;;
32228;SDS011;18717;48.034;11.186;2024-01-27T06:51:44;8.82;;;7.95;;
32228;SDS011;18717;48.034;11.186;2024-01-27T06:54:11;15.95;;;8.15;;
32228;SDS011;18717;48.034;11.186;2024-01-27T06:56:39;19.05;;;9.13;;
32228;SDS011;18717;48.034;11.186;2024-01-27T06:59:07;8.48;;;7.80;;
32228;SDS011;18717;48.034;11.186;2024-01-27T07:01:36;9.73;;;8.50;;
32228;SDS011;18717;48.034;11.186;2024-01-27T07:04:04;8.82;;;7.72;;
32228;SDS011;18717;48.034;11.186;2024-01-27T07:06:32;9.70;;;7.15;;
32228;SDS011;18717;48.034;11.186;2024-01-27T07:09:00;8.48;;;7.68;;
32228;SDS011;18717;48.034;11.186;2024-01-27T07:11:28;8.90;;;8.00;;
32228;SDS011;18717;48.034;11.186;2024-01-27T07:13:55;12.95;;;8.07;;
32228;SDS011;18717;48.034;11.186;2024-01-27T07:16:23;11.52;;;8.05;;
32228;SDS011;18717;48.034;11.186;2024-01-27T07:18:52;13.05;;;9.27;;
32228;SDS011;18717;48.034;11.186;2024-01-27T07:21:20;11.38;;;9.25;;
32228;SDS011;18717;48.034;11.186;2024-01-27T07:23:48;14.65;;;10.43;;
32228;SDS011;18717;48.034;11.186;2024-01-27T07:26:16;11.85;;;9.48;;
32228;SDS011;18717;48.034;11.186;2024-01-27T07:28:43;14.02;;;9.85;;
32228;SDS011;18717;48.034;11.186;2024-01-27T07:31:11;10.13;;;8.80;;
32228;SDS011;18717;48.034;11.186;2024-01-27T07:33:40;9.38;;;8.52;;
32228;SDS011;18717;48.034;11.186;2024-01-27T07:36:09;18.80;;;11.38;;
32228;SDS011;18717;48.034;11.186;2024-01-27T07:38:38;26.73;;;17.65;;
32228;SDS011;18717;48.034;11.186;2024-01-27T07:41:05;16.20;;;12.65;;
32228;SDS011;18717;48.034;11.186;2024-01-27T07:43:33;13.07;;;10.95;;
32228;SDS011;18717;48.034;11.186;2024-01-27T07:46:01;13.18;;;8.88;;
32228;SDS011;18717;48.034;11.186;2024-01-27T07:48:28;13.35;;;9.10;;
32228;SDS011;18717;48.034;11.186;2024-01-27T07:50:56;10.77;;;8.90;;
32228;SDS011;18717;48.034;11.186;2024-01-27T07:53:25;7.90;;;7.13;;
32228;SDS011;18717;48.034;11.186;2024-01-27T07:55:53;11.55;;;8.55;;
32228;SDS011;18717;48.034;11.186;2024-01-27T07:58:22;8.77;;;8.15;;
32228;SDS011;18717;48.034;11.186;2024-01-27T08:00:50;10.65;;;8.32;;
32228;SDS011;18717;48.034;11.186;2024-01-27T08:03:17;8.65;;;7.95;;
32228;SDS011;18717;48.034;11.186;2024-01-27T08:05:45;8.93;;;8.13;;
32228;SDS011;18717;48.034;11.186;2024-01-27T08:08:13;10.35;;;8.77;;
32228;SDS011;18717;48.034;11.186;2024-01-27T08:10:42;13.45;;;10.70;;
32228;SDS011;18717;48.034;11.186;2024-01-27T08:13:11;18.45;;;10.52;;
32228;SDS011;18717;48.034;11.186;2024-01-27T08:15:39;21.73;;;11.50;;
32228;SDS011;18717;48.034;11.186;2024-01-27T08:18:07;11.55;;;9.48;;
32228;SDS011;18717;48.034;11.186;2024-01-27T08:20:35;10.60;;;8.48;;
32228;SDS011;18717;48.034;11.186;2024-01-27T08:23:03;18.73;;;11.90;;
32228;SDS011;18717;48.034;11.186;2024-01-27T08:25:33;16.00;;;11.50;;
32228;SDS011;18717;48.034;11.186;2024-01-27T08:28:02;32.13;;;20.10;;
32228;SDS011;18717;48.034;11.186;2024-01-27T08:30:30;19.55;;;12.10;;
32228;SDS011;18717;48.034;11.186;2024-01-27T08:32:58;26.83;;;16.65;;
32228;SDS011;18717;48.034;11.186;2024-01-27T08:35:26;16.02;;;9.40;;
32228;SDS011;18717;48.034;11.186;2024-01-27T08:37:54;11.30;;;8.85;;
32228;SDS011;18717;48.034;11.186;2024-01-27T08:40:22;12.68;;;7.97;;
32228;SDS011;18717;48.034;11.186;2024-01-27T08:42:50;11.85;;;8.93;;
32228;SDS011;18717;48.034;11.186;2024-01-27T08:45:19;10.48;;;8.82;;
32228;SDS011;18717;48.034;11.186;2024-01-27T08:47:47;13.70;;;9.02;;
32228;SDS011;18717;48.034;11.186;2024-01-27T08:50:15;12.90;;;8.75;;
32228;SDS011;18717;48.034;11.186;2024-01-27T08:52:43;10.32;;;8.57;;
32228;SDS011;18717;48.034;11.186;2024-01-27T08:55:12;8.40;;;7.63;;
32228;SDS011;18717;48.034;11.186;2024-01-27T08:57:39;21.05;;;10.57;;
32228;SDS011;18717;48.034;11.186;2024-01-27T09:00:08;13.43;;;12.02;;
32228;SDS011;18717;48.034;11.186;2024-01-27T09:02:38;10.65;;;8.95;;
32228;SDS011;18717;48.034;11.186;2024-01-27T09:05:05;17.30;;;9.55;;
32228;SDS011;18717;48.034;11.186;2024-01-27T09:07:34;12.20;;;8.98;;
32228;SDS011;18717;48.034;11.186;2024-01-27T09:10:02;18.35;;;9.25;;
32228;SDS011;18717;48.034;11.186;2024-01-27T09:12:29;14.90;;;8.85;;
32228;SDS011;18717;48.034;11.186;2024-01-27T09:14:57;11.32;;;8.80;;
32228;SDS011;18717;48.034;11.186;2024-01-27T09:17:25;10.98;;;8.43;;
32228;SDS011;18717;48.034;11.186;2024-01-27T09:19:54;13.32;;;8.55;;
32228;SDS011;18717;48.034;11.186;2024-01-27T09:22:22;12.88;;;8.85;;
32228;SDS011;18717;48.034;11.186;2024-01-27T09:24:50;14.45;;;9.30;;
32228;SDS011;18717;48.034;11.186;2024-01-27T09:27:18;9.93;;;8.93;;
32228;SDS011;18717;48.034;11.186;2024-01-27T09:29:46;10.63;;;8.45;;
32228;SDS011;18717;48.034;11.186;2024-01-27T09:32:14;10.77;;;8.60;;
32228;SDS011;18717;48.034;11.186;2024-01-27T09:34:41;13.52;;;8.40;;
32228;SDS011;18717;48.034;11.186;2024-01-27T09:37:11;14.15;;;8.82;;
32228;SDS011;18717;48.034;11.186;2024-01-27T09:39:39;9.35;;;8.68;;
32228;SDS011;18717;48.034;11.186;2024-01-27T09:42:07;10.90;;;8.48;;
32228;SDS011;18717;48.034;11.186;2024-01-27T09:44:41;10.80;;;9.40;;
32228;SDS011;18717;48.034;11.186;2024-01-27T09:47:10;10.85;;;8.48;;
32228;SDS011;18717;48.034;11.186;2024-01-27T09:49:39;13.43;;;8.43;;
32228;SDS011;18717;48.034;11.186;2024-01-27T09:52:07;15.18;;;8.77;;
32228;SDS011;18717;48.034;11.186;2024-01-27T09:54:37;13.02;;;8.38;;
32228;SDS011;18717;48.034;11.186;2024-01-27T09:57:05;12.30;;;8.73;;
32228;SDS011;18717;48.034;11.186;2024-01-27T09:59:33;12.98;;;9.43;;
32228;SDS011;18717;48.034;11.186;2024-01-27T10:02:00;9.45;;;8.63;;
32228;SDS011;18717;48.034;11.186;2024-01-27T10:04:30;11.15;;;8.93;;
32228;SDS011;18717;48.034;11.186;2024-01-27T10:06:58;10.55;;;8.43;;
32228;SDS011;18717;48.034;11.186;2024-01-27T10:09:26;9.40;;;8.43;;
32228;SDS011;18717;48.034;11.186;2024-01-27T10:11:55;10.30;;;8.50;;
32228;SDS011;18717;48.034;11.186;2024-01-27T10:14:23;9.77;;;8.88;;
32228;SDS011;18717;48.034;11.186;2024-01-27T10:16:51;11.63;;;9.02;;
32228;SDS011;18717;48.034;11.186;2024-01-27T10:19:19;15.15;;;9.30;;
32228;SDS011;18717;48.034;11.186;2024-01-27T10:21:47;12.85;;;8.85;;
32228;SDS011;18717;48.034;11.186;2024-01-27T10:24:15;9.25;;;8.35;;
32228;SDS011;18717;48.034;11.186;2024-01-27T10:26:43;10.30;;;9.27;;
32228;SDS011;18717;48.034;11.186;2024-01-27T10:29:12;16.02;;;9.30;;
32228;SDS011;18717;48.034;11.186;2024-01-27T10:31:40;13.15;;;9.48;;
32228;SDS011;18717;48.034;11.186;2024-01-27T10:34:07;10.70;;;8.85;;
32228;SDS011;18717;48.034;11.186;2024-01-27T10:36:42;10.57;;;8.82;;
32228;SDS011;18717;48.034;11.186;2024-01-27T10:39:18;11.23;;;10.00;;
32228;SDS011;18717;48.034;11.186;2024-01-27T10:41:48;12.52;;;9.70;;
32228;SDS011;18717;48.034;11.186;2024-01-27T10:44:19;10.35;;;9.23;;
32228;SDS011;18717;48.034;11.186;2024-01-27T10:46:48;10.23;;;9.20;;
32228;SDS011;18717;48.034;11.186;2024-01-27T10:49:18;12.23;;;9.93;;
32228;SDS011;18717;48.034;11.186;2024-01-27T10:51:46;10.60;;;9.50;;
32228;SDS011;18717;48.034;11.186;2024-01-27T10:56:46;10.85;;;9.40;;
32228;SDS011;18717;48.034;11.186;2024-01-27T10:59:14;15.52;;;10.07;;
32228;SDS011;18717;48.034;11.186;2024-01-27T11:01:44;10.45;;;9.57;;
32228;SDS011;18717;48.034;11.186;2024-01-27T11:04:13;13.65;;;10.25;;
32228;SDS011;18717;48.034;11.186;2024-01-27T11:06:42;11.13;;;9.55;;
32228;SDS011;18717;48.034;11.186;2024-01-27T11:09:10;11.80;;;10.20;;
32228;SDS011;18717;48.034;11.186;2024-01-27T11:11:39;11.93;;;10.75;;
32228;SDS011;18717;48.034;11.186;2024-01-27T11:14:08;10.93;;;9.80;;
32228;SDS011;18717;48.034;11.186;2024-01-27T11:16:36;10.45;;;9.43;;
32228;SDS011;18717;48.034;11.186;2024-01-27T11:19:10;10.80;;;9.70;;
32228;SDS011;18717;48.034;11.186;2024-01-27T11:21:39;13.02;;;10.90;;
32228;SDS011;18717;48.034;11.186;2024-01-27T11:24:16;12.23;;;10.20;;
32228;SDS011;18717;48.034;11.186;2024-01-27T11:26:45;10.25;;;9.35;;
32228;SDS011;18717;48.034;11.186;2024-01-27T11:29:13;11.18;;;10.07;;
32228;SDS011;18717;48.034;11.186;2024-01-27T11:31:46;14.27;;;9.88;;
32228;SDS011;18717;48.034;11.186;2024-01-27T11:34:17;17.90;;;9.52;;
32228;SDS011;18717;48.034;11.186;2024-01-27T11:36:47;9.98;;;9.23;;
32228;SDS011;18717;48.034;11.186;2024-01-27T11:39:24;14.27;;;8.95;;
32228;SDS011;18717;48.034;11.186;2024-01-27T11:41:53;10.52;;;9.43;;
32228;SDS011;18717;48.034;11.186;2024-01-27T11:44:33;12.27;;;9.55;;
32228;SDS011;18717;48.034;11.186;2024-01-27T11:47:01;11.90;;;9.38;;
32228;SDS011;18717;48.034;11.186;2024-01-27T11:49:31;10.80;;;9.88;;
32228;SDS011;18717;48.034;11.186;2024-01-27T11:52:00;10.60;;;9.50;;
32228;SDS011;18717;48.034;11.186;2024-01-27T11:54:28;13.25;;;9.63;;
32228;SDS011;18717;48.034;11.186;2024-01-27T11:56:56;11.50;;;10.45;;
32228;SDS011;18717;48.034;11.186;2024-01-27T11:59:23;12.13;;;8.85;;
32228;SDS011;18717;48.034;11.186;2024-01-27T12:01:51;10.82;;;9.27;;
32228;SDS011;18717;48.034;11.186;2024-01-27T12:04:19;12.15;;;9.65;;
32228;SDS011;18717;48.034;11.186;2024-01-27T12:06:49;16.40;;;10.35;;
32228;SDS011;18717;48.034;11.186;2024-01-27T12:09:16;15.68;;;9.98;;
32228;SDS011;18717;48.034;11.186;2024-01-27T12:11:44;11.77;;;9.13;;
32228;SDS011;18717;48.034;11.186;2024-01-27T12:14:12;16.00;;;9.85;;
32228;SDS011;18717;48.034;11.186;2024-01-27T12:16:40;10.85;;;9.95;;
32228;SDS011;18717;48.034;11.186;2024-01-27T12:19:09;11.38;;;10.10;;
32228;SDS011;18717;48.034;11.186;2024-01-27T12:21:37;10.27;;;9.48;;
32228;SDS011;18717;48.034;11.186;2024-01-27T12:24:06;10.52;;;9.50;;
32228;SDS011;18717;48.034;11.186;2024-01-27T12:29:15;14.60;;;9.43;;
32228;SDS011;18717;48.034;11.186;2024-01-27T12:31:44;10.15;;;9.02;;
32228;SDS011;18717;48.034;11.186;2024-01-27T12:34:11;11.48;;;10.43;;
32228;SDS011;18717;48.034;11.186;2024-01-27T12:36:40;11.10;;;10.20;;
32228;SDS011;18717;48.034;11.186;2024-01-27T12:39:09;11.50;;;9.95;;
32228;SDS011;18717;48.034;11.186;2024-01-27T12:41:37;11.00;;;9.95;;
32228;SDS011;18717;48.034;11.186;2024-01-27T12:44:05;12.80;;;9.85;;
32228;SDS011;18717;48.034;11.186;2024-01-27T12:46:33;9.60;;;8.95;;
32228;SDS011;18717;48.034;11.186;2024-01-27T12:49:01;12.68;;;9.43;;
32228;SDS011;18717;48.034;11.186;2024-01-27T12:51:30;11.23;;;10.23;;
32228;SDS011;18717;48.034;11.186;2024-01-27T12:53:58;10.13;;;9.23;;
32228;SDS011;18717;48.034;11.186;2024-01-27T12:56:27;15.68;;;9.73;;
32228;SDS011;18717;48.034;11.186;2024-01-27T12:58:55;9.45;;;8.65;;
32228;SDS011;18717;48.034;11.186;2024-01-27T13:01:22;8.70;;;8.20;;
32228;SDS011;18717;48.034;11.186;2024-01-27T13:03:50;10.10;;;8.73;;
32228;SDS011;18717;48.034;11.186;2024-01-27T13:06:18;9.40;;;8.80;;
32228;SDS011;18717;48.034;11.186;2024-01-27T13:08:46;12.23;;;9.43;;
32228;SDS011;18717;48.034;11.186;2024-01-27T13:11:14;9.50;;;8.80;;
32228;SDS011;18717;48.034;11.186;2024-01-27T13:13:43;10.48;;;9.32;;
32228;SDS011;18717;48.034;11.186;2024-01-27T13:16:15;10.80;;;9.80;;
32228;SDS011;18717;48.034;11.186;2024-01-27T13:18:43;11.35;;;10.48;;
32228;SDS011;18717;48.034;11.186;2024-01-27T13:21:12;11.25;;;10.30;;
32228;SDS011;18717;48.034;11.186;2024-01-27T13:23:40;10.35;;;9.52;;
32228;SDS011;18717;48.034;11.186;2024-01-27T13:26:08;10.82;;;9.77;;
32228;SDS011;18717;48.034;11.186;2024-01-27T13:28:46;11.35;;;10.30;;
32228;SDS011;18717;48.034;11.186;2024-01-27T13:31:15;11.63;;;9.25;;
32228;SDS011;18717;48.034;11.186;2024-01-27T13:33:43;11.25;;;9.50;;
32228;SDS011;18717;48.034;11.186;2024-01-27T13:36:11;11.30;;;9.85;;
32228;SDS011;18717;48.034;11.186;2024-01-27T13:38:39;13.10;;;9.43;;
32228;SDS011;18717;48.034;11.186;2024-01-27T13:41:06;10.70;;;9.73;;
32228;SDS011;18717;48.034;11.186;2024-01-27T13:43:34;11.73;;;10.68;;
32228;SDS011;18717;48.034;11.186;2024-01-27T13:46:03;9.90;;;9.07;;
32228;SDS011;18717;48.034;11.186;2024-01-27T13:48:31;11.20;;;9.90;;
32228;SDS011;18717;48.034;11.186;2024-01-27T13:50:59;12.05;;;10.15;;
32228;SDS011;18717;48.034;11.186;2024-01-27T13:53:27;10.65;;;9.90;;
32228;SDS011;18717;48.034;11.186;2024-01-27T13:56:11;11.82;;;10.35;;
32228;SDS011;18717;48.034;11.186;2024-01-27T13:58:39;11.07;;;10.02;;
32228;SDS011;18717;48.034;11.186;2024-01-27T14:01:08;11.90;;;10.15;;
32228;SDS011;18717;48.034;11.186;2024-01-27T14:03:36;10.35;;;9.65;;
32228;SDS011;18717;48.034;11.186;2024-01-27T14:06:05;10.30;;;9.60;;
32228;SDS011;18717;48.034;11.186;2024-01-27T14:08:34;10.70;;;9.52;;
32228;SDS011;18717;48.034;11.186;2024-01-27T14:11:01;10.73;;;9.73;;
32228;SDS011;18717;48.034;11.186;2024-01-27T14:13:29;12.77;;;9.43;;
32228;SDS011;18717;48.034;11.186;2024-01-27T14:18:50;10.55;;;9.57;;
32228;SDS011;18717;48.034;11.186;2024-01-27T14:21:18;12.52;;;9.57;;
32228;SDS011;18717;48.034;11.186;2024-01-27T14:23:46;10.95;;;9.88;;
32228;SDS011;18717;48.034;11.186;2024-01-27T14:26:15;11.35;;;9.48;;
32228;SDS011;18717;48.034;11.186;2024-01-27T14:28:42;10.25;;;9.18;;
32228;SDS011;18717;48.034;11.186;2024-01-27T14:31:11;10.43;;;9.73;;
32228;SDS011;18717;48.034;11.186;2024-01-27T14:33:42;14.63;;;9.10;;
32228;SDS011;18717;48.034;11.186;2024-01-27T14:36:10;10.82;;;9.82;;
32228;SDS011;18717;48.034;11.186;2024-01-27T14:38:38;11.32;;;9.80;;
32228;SDS011;18717;48.034;11.186;2024-01-27T14:41:07;9.40;;;8.88;;